Time;durP1;ratioP1;P1;durP2;ratioP2;P2;SDS_P1;SDS_P2;PMS_P1;PMS_P2;Temp;Humidity;BMP_temperature;BMP_pressure;BME280_temperature;BME280_humidity;BME280_pressure;Samples;Min_cycle;Max_cycle;Signal;HPM_P1;HPM_P2
2023/06/04 00:02:03;;;;;;;4.22;1.92;;;12.60;99.90;;;;;;5054367;28;20115;-63
2023/06/04 00:04:29;;;;;;;3.60;2.03;;;12.80;99.90;;;;;;5062014;28;20732;-63
2023/06/04 00:06:55;;;;;;;4.47;2.00;;;12.70;99.90;;;;;;5055399;28;20508;-64
2023/06/04 00:09:21;;;;;;;4.10;1.90;;;12.60;99.90;;;;;;5058747;28;20036;-58
2023/06/04 00:11:47;;;;;;;4.13;2.15;;;12.50;99.90;;;;;;5062650;28;20075;-57
2023/06/04 00:14:13;;;;;;;3.40;2.00;;;12.50;99.90;;;;;;5059007;28;20025;-57
2023/06/04 00:16:40;;;;;;;4.03;1.70;;;12.50;99.90;;;;;;5063238;28;20044;-57
2023/06/04 00:19:06;;;;;;;3.58;1.90;;;12.50;99.90;;;;;;5053448;28;20044;-58
2023/06/04 00:21:32;;;;;;;3.60;1.92;;;12.40;99.90;;;;;;5059734;28;20036;-57
2023/06/04 00:23:58;;;;;;;3.08;1.83;;;12.40;99.90;;;;;;5060386;28;20037;-57
2023/06/04 00:26:24;;;;;;;4.22;2.13;;;12.40;99.90;;;;;;5058561;28;20033;-57
2023/06/04 00:28:50;;;;;;;2.83;1.80;;;12.30;99.90;;;;;;5056812;28;20033;-58
2023/06/04 00:31:15;;;;;;;3.15;1.88;;;12.50;99.90;;;;;;5055333;28;20044;-58
2023/06/04 00:33:41;;;;;;;6.22;1.85;;;12.20;99.90;;;;;;5059582;28;20680;-57
2023/06/04 00:36:07;;;;;;;6.30;1.75;;;11.90;99.90;;;;;;5056203;28;20132;-57
2023/06/04 00:38:33;;;;;;;2.90;1.85;;;12.10;99.90;;;;;;5065273;28;20032;-57
2023/06/04 00:40:58;;;;;;;3.88;2.00;;;12.10;99.90;;;;;;5057783;28;20041;-57
2023/06/04 00:43:26;;;;;;;3.42;2.05;;;12.00;99.90;;;;;;5061550;28;20056;-57
2023/06/04 00:45:53;;;;;;;3.30;2.15;;;11.90;99.90;;;;;;5062179;28;20167;-57
2023/06/04 00:48:20;;;;;;;3.30;1.98;;;11.90;99.90;;;;;;5065436;28;20032;-58
2023/06/04 00:50:46;;;;;;;4.57;2.30;;;12.00;99.90;;;;;;5064929;28;20373;-57
2023/06/04 00:53:12;;;;;;;3.67;2.05;;;11.90;99.90;;;;;;5050681;28;20029;-57
2023/06/04 00:55:38;;;;;;;4.55;1.90;;;12.00;99.90;;;;;;5057987;28;20035;-57
2023/06/04 00:58:04;;;;;;;5.75;2.40;;;12.00;99.90;;;;;;5054127;28;20033;-57
2023/06/04 01:00:31;;;;;;;5.72;2.03;;;11.90;99.90;;;;;;5063552;28;20029;-57
2023/06/04 01:03:02;;;;;;;6.80;2.08;;;12.10;99.90;;;;;;5055822;28;20520;-57
2023/06/04 01:05:43;;;;;;;4.32;1.92;;;12.00;99.90;;;;;;5052539;28;20025;-57
2023/06/04 01:08:10;;;;;;;5.13;2.40;;;12.00;99.90;;;;;;5056812;28;20035;-58
2023/06/04 01:10:36;;;;;;;6.55;2.22;;;12.00;99.90;;;;;;5054824;28;20040;-57
2023/06/04 01:13:01;;;;;;;5.38;2.13;;;12.20;99.90;;;;;;5053426;28;20044;-58
2023/06/04 01:15:27;;;;;;;7.20;2.53;;;12.30;99.90;;;;;;5056122;28;20142;-57
2023/06/04 01:18:02;;;;;;;5.35;2.22;;;12.50;99.90;;;;;;5054861;28;20051;-58
2023/06/04 01:20:44;;;;;;;4.35;2.10;;;12.50;99.90;;;;;;5052837;28;20032;-58
2023/06/04 01:23:33;;;;;;;4.72;2.15;;;12.50;99.90;;;;;;5057830;28;20548;-58
2023/06/04 01:26:03;;;;;;;7.65;2.20;;;12.50;99.90;;;;;;5049542;28;20187;-58
2023/06/04 01:28:30;;;;;;;6.75;2.13;;;12.50;99.90;;;;;;5055736;28;20032;-57
2023/06/04 01:30:57;;;;;;;6.65;2.00;;;12.30;99.90;;;;;;5053921;28;20040;-58
2023/06/04 01:33:23;;;;;;;6.38;1.75;;;12.30;99.90;;;;;;5055738;28;20524;-58
2023/06/04 01:35:49;;;;;;;3.58;1.98;;;12.30;99.90;;;;;;5058469;28;20093;-58
2023/06/04 01:38:15;;;;;;;3.15;2.00;;;12.40;99.90;;;;;;5051181;28;20041;-59
2023/06/04 01:40:40;;;;;;;4.97;1.90;;;12.40;99.90;;;;;;5062921;28;20415;-57
2023/06/04 01:43:06;;;;;;;5.25;2.10;;;12.20;99.90;;;;;;5053739;28;20029;-57
2023/06/04 01:45:33;;;;;;;4.82;2.10;;;12.10;99.90;;;;;;5060216;28;20063;-57
2023/06/04 01:48:02;;;;;;;3.05;1.80;;;12.20;99.90;;;;;;5062464;28;20032;-57
2023/06/04 01:50:28;;;;;;;6.47;2.10;;;12.30;99.90;;;;;;5058715;28;20072;-57
2023/06/04 01:52:54;;;;;;;3.28;1.88;;;12.40;99.90;;;;;;5062675;28;20036;-57
2023/06/04 01:55:20;;;;;;;3.38;1.90;;;12.40;99.90;;;;;;5058340;28;20042;-57
2023/06/04 01:57:50;;;;;;;3.53;1.85;;;12.20;99.90;;;;;;5063141;28;20469;-58
2023/06/04 02:00:16;;;;;;;4.88;1.98;;;12.30;99.90;;;;;;5051778;28;20056;-57
2023/06/04 02:02:43;;;;;;;4.30;2.17;;;12.10;99.90;;;;;;5057545;28;20105;-57
2023/06/04 02:05:10;;;;;;;6.93;1.88;;;12.10;99.90;;;;;;5049203;28;20030;-57
2023/06/04 02:07:38;;;;;;;3.80;2.00;;;12.30;99.90;;;;;;5059424;28;20040;-57
2023/06/04 02:10:11;;;;;;;4.20;1.95;;;12.10;99.90;;;;;;5054759;28;20548;-57
2023/06/04 02:12:39;;;;;;;2.55;1.77;;;11.90;99.90;;;;;;5061176;28;20037;-57
2023/06/04 02:15:06;;;;;;;2.63;1.80;;;11.80;99.90;;;;;;5055859;28;20032;-57
2023/06/04 02:17:32;;;;;;;5.72;2.28;;;11.70;99.90;;;;;;5056060;28;20086;-57
2023/06/04 02:19:58;;;;;;;4.38;1.95;;;11.60;99.90;;;;;;5053593;28;20032;-58
2023/06/04 02:22:25;;;;;;;4.03;1.95;;;11.40;99.90;;;;;;5057525;28;20090;-57
2023/06/04 02:24:51;;;;;;;3.42;1.63;;;11.50;99.90;;;;;;5055912;28;20032;-57
2023/06/04 02:27:17;;;;;;;3.90;1.92;;;11.40;99.90;;;;;;5056034;28;20727;-57
2023/06/04 02:29:43;;;;;;;2.88;1.73;;;11.20;99.90;;;;;;5057709;28;20036;-57
2023/06/04 02:32:09;;;;;;;4.00;1.80;;;11.40;99.90;;;;;;5053806;28;20060;-57
2023/06/04 02:34:35;;;;;;;5.72;1.88;;;11.30;99.90;;;;;;5049242;28;20043;-57
2023/06/04 02:37:01;;;;;;;4.03;1.85;;;11.50;99.90;;;;;;5061506;28;20048;-58
2023/06/04 02:39:26;;;;;;;7.05;1.92;;;11.70;99.90;;;;;;5051522;28;20036;-58
2023/06/04 02:41:52;;;;;;;8.85;2.30;;;11.70;99.90;;;;;;5060593;28;20041;-57
2023/06/04 02:44:18;;;;;;;4.55;2.40;;;12.00;99.90;;;;;;5056851;28;20119;-57
2023/06/04 02:46:44;;;;;;;3.78;2.08;;;12.00;99.90;;;;;;5055810;28;20113;-57
2023/06/04 02:49:13;;;;;;;4.95;1.83;;;11.80;99.90;;;;;;5059867;28;20040;-58
2023/06/04 02:51:42;;;;;;;6.95;2.20;;;12.00;99.90;;;;;;5056826;28;20110;-57
2023/06/04 02:54:08;;;;;;;4.32;2.10;;;11.80;99.90;;;;;;5052013;28;20021;-58
2023/06/04 02:56:36;;;;;;;4.22;2.00;;;11.70;99.90;;;;;;5053806;28;20032;-57
2023/06/04 02:59:01;;;;;;;6.22;2.50;;;11.80;99.90;;;;;;5054487;28;20036;-56
2023/06/04 03:01:27;;;;;;;8.77;2.53;;;11.90;99.90;;;;;;5055512;28;20035;-57
2023/06/04 03:03:53;;;;;;;6.15;2.30;;;11.70;99.90;;;;;;5053375;28;20040;-57
2023/06/04 03:06:20;;;;;;;7.38;2.80;;;11.70;99.90;;;;;;5050790;28;20397;-57
2023/06/04 03:08:46;;;;;;;3.58;2.10;;;11.60;99.90;;;;;;5055369;28;20119;-57
2023/06/04 03:11:12;;;;;;;6.90;2.33;;;11.60;99.90;;;;;;5055937;28;20031;-57
2023/06/04 03:13:38;;;;;;;3.25;2.13;;;11.50;99.90;;;;;;5057302;28;20028;-57
2023/06/04 03:16:09;;;;;;;4.07;2.20;;;11.80;99.90;;;;;;5054259;28;20448;-57
2023/06/04 03:18:39;;;;;;;3.42;2.10;;;11.80;99.90;;;;;;5049381;28;20024;-57
2023/06/04 03:21:06;;;;;;;4.55;2.00;;;11.70;99.90;;;;;;5059629;28;20788;-55
2023/06/04 03:23:32;;;;;;;5.55;2.55;;;11.50;99.90;;;;;;5055206;28;20163;-55
2023/06/04 03:25:58;;;;;;;6.28;2.42;;;11.40;99.90;;;;;;5056211;28;20472;-55
2023/06/04 03:28:24;;;;;;;5.30;2.25;;;11.40;99.90;;;;;;5050869;28;20029;-55
2023/06/04 03:30:49;;;;;;;4.22;1.98;;;11.40;99.90;;;;;;5053274;28;20067;-55
2023/06/04 03:33:15;;;;;;;4.28;2.35;;;11.50;99.90;;;;;;5055842;28;20107;-54
2023/06/04 03:35:41;;;;;;;4.78;2.28;;;11.40;99.90;;;;;;5054091;28;20043;-55
2023/06/04 03:38:07;;;;;;;4.00;2.42;;;11.60;99.90;;;;;;5050256;28;20166;-54
2023/06/04 03:40:32;;;;;;;6.13;2.08;;;11.40;99.90;;;;;;5057481;28;20043;-55
2023/06/04 03:42:58;;;;;;;4.60;2.22;;;11.30;99.90;;;;;;5050151;28;20040;-55
2023/06/04 03:45:23;;;;;;;8.00;2.38;;;11.30;99.90;;;;;;5052265;28;20436;-55
2023/06/04 03:47:49;;;;;;;10.80;2.58;;;11.30;99.90;;;;;;5056611;28;20024;-55
2023/06/04 03:50:15;;;;;;;3.95;2.35;;;11.30;99.90;;;;;;5047269;28;20059;-54
2023/06/04 03:52:40;;;;;;;4.10;2.08;;;11.30;99.90;;;;;;5054709;28;20040;-54
2023/06/04 03:55:07;;;;;;;7.65;2.63;;;11.50;99.90;;;;;;5058797;28;20492;-55
2023/06/04 03:57:32;;;;;;;3.85;2.30;;;11.50;99.90;;;;;;5053869;28;20112;-54
2023/06/04 03:59:58;;;;;;;4.45;2.38;;;11.30;99.90;;;;;;5049901;28;20107;-55
2023/06/04 04:02:23;;;;;;;3.70;2.40;;;11.30;99.90;;;;;;5046131;28;20090;-55
2023/06/04 04:04:49;;;;;;;4.63;2.30;;;11.30;99.90;;;;;;5053696;28;20029;-54
2023/06/04 04:07:15;;;;;;;6.18;2.53;;;11.40;99.90;;;;;;5055074;28;20043;-55
2023/06/04 04:09:41;;;;;;;6.75;2.58;;;11.40;99.90;;;;;;5057078;28;20045;-55
2023/06/04 04:12:07;;;;;;;6.18;2.40;;;11.40;99.90;;;;;;5051288;28;20120;-55
2023/06/04 04:14:32;;;;;;;5.38;2.92;;;11.40;99.90;;;;;;5057022;28;20112;-56
2023/06/04 04:16:58;;;;;;;4.28;2.55;;;11.50;99.90;;;;;;5051808;28;20040;-55
2023/06/04 04:19:23;;;;;;;3.78;2.45;;;11.60;99.90;;;;;;5057395;28;20123;-55
2023/06/04 04:21:49;;;;;;;6.07;2.40;;;11.60;99.90;;;;;;5057409;28;20028;-55
2023/06/04 04:24:25;;;;;;;5.65;2.30;;;11.60;99.90;;;;;;5051304;28;20756;-55
2023/06/04 04:26:54;;;;;;;5.25;2.55;;;11.60;99.90;;;;;;5056083;28;20041;-55
2023/06/04 04:29:24;;;;;;;6.88;2.17;;;11.60;99.90;;;;;;5053606;28;20485;-55
2023/06/04 04:31:50;;;;;;;7.30;2.30;;;11.70;99.90;;;;;;5053690;28;20512;-55
2023/06/04 04:34:16;;;;;;;6.28;2.30;;;11.80;99.90;;;;;;5052148;28;20449;-55
2023/06/04 04:36:51;;;;;;;7.60;2.22;;;11.90;99.90;;;;;;5048588;28;20028;-55
2023/06/04 04:39:19;;;;;;;3.45;2.25;;;12.00;99.90;;;;;;5054335;28;20197;-55
2023/06/04 04:41:44;;;;;;;3.70;2.00;;;12.20;99.90;;;;;;5058411;28;20048;-55
2023/06/04 04:44:10;;;;;;;6.10;2.42;;;12.20;99.90;;;;;;5060939;28;20106;-55
2023/06/04 04:46:35;;;;;;;5.72;2.30;;;12.10;99.90;;;;;;5059001;28;20047;-55
2023/06/04 04:49:02;;;;;;;4.82;2.22;;;12.30;99.90;;;;;;5054368;28;20041;-55
2023/06/04 04:51:27;;;;;;;6.82;2.80;;;12.50;99.90;;;;;;5056367;28;20166;-55
2023/06/04 04:53:54;;;;;;;6.28;2.33;;;12.50;99.90;;;;;;5062254;28;20120;-54
2023/06/04 04:56:20;;;;;;;5.05;2.33;;;12.50;99.90;;;;;;5055801;28;20041;-54
2023/06/04 04:58:45;;;;;;;7.38;2.40;;;12.60;99.90;;;;;;5056833;28;20025;-55
2023/06/04 05:01:11;;;;;;;3.60;2.60;;;12.70;99.90;;;;;;5055485;28;20036;-57
2023/06/04 05:03:37;;;;;;;5.03;2.30;;;12.70;99.90;;;;;;5052696;28;20357;-57
2023/06/04 05:06:02;;;;;;;6.72;2.50;;;12.90;99.90;;;;;;5057128;28;20408;-56
2023/06/04 05:08:28;;;;;;;4.00;2.60;;;12.80;99.90;;;;;;5056164;28;20029;-58
2023/06/04 05:10:54;;;;;;;6.07;2.55;;;12.80;99.90;;;;;;5064467;28;20433;-57
2023/06/04 05:13:19;;;;;;;4.70;2.33;;;13.00;99.90;;;;;;5060503;28;20499;-57
2023/06/04 05:15:47;;;;;;;4.72;2.78;;;13.10;99.90;;;;;;5062011;28;20032;-57
2023/06/04 05:18:13;;;;;;;5.70;2.40;;;13.20;99.90;;;;;;5055990;28;20127;-57
2023/06/04 05:20:38;;;;;;;5.05;2.60;;;13.30;99.90;;;;;;5056833;28;20642;-57
2023/06/04 05:23:05;;;;;;;5.13;2.53;;;13.30;99.90;;;;;;5061424;28;20123;-57
2023/06/04 05:25:31;;;;;;;4.50;2.63;;;13.40;99.90;;;;;;5055823;28;20036;-57
2023/06/04 05:27:56;;;;;;;7.75;2.22;;;13.60;99.90;;;;;;5058169;28;20040;-57
2023/06/04 05:30:22;;;;;;;8.80;3.25;;;13.60;99.90;;;;;;5062807;28;20548;-57
2023/06/04 05:32:50;;;;;;;5.38;2.60;;;13.60;99.90;;;;;;5058063;28;20037;-57
2023/06/04 05:35:16;;;;;;;3.45;2.13;;;13.70;99.90;;;;;;5057860;28;20028;-57
2023/06/04 05:37:42;;;;;;;6.30;2.83;;;13.80;99.90;;;;;;5056150;28;20047;-58
2023/06/04 05:40:09;;;;;;;5.95;2.85;;;13.70;99.90;;;;;;5058799;28;20032;-57
2023/06/04 05:42:35;;;;;;;5.68;2.60;;;13.70;99.90;;;;;;5057306;28;20036;-57
2023/06/04 05:45:01;;;;;;;4.43;2.38;;;13.80;99.90;;;;;;5056312;28;20542;-58
2023/06/04 05:47:31;;;;;;;4.15;2.17;;;13.90;99.90;;;;;;5058606;28;20071;-57
2023/06/04 05:49:57;;;;;;;6.60;2.55;;;14.00;99.90;;;;;;5057266;28;20047;-57
2023/06/04 05:52:22;;;;;;;5.35;2.60;;;14.00;99.90;;;;;;5061007;28;20389;-57
2023/06/04 05:54:48;;;;;;;8.32;2.40;;;14.10;99.90;;;;;;5054519;28;20036;-58
2023/06/04 05:57:14;;;;;;;3.97;2.50;;;14.30;99.90;;;;;;5054368;28;20706;-58
2023/06/04 05:59:40;;;;;;;8.13;2.58;;;14.60;99.90;;;;;;5056707;28;20036;-57
2023/06/04 06:02:06;;;;;;;4.30;2.60;;;14.80;99.90;;;;;;5059149;28;20028;-57
2023/06/04 06:04:31;;;;;;;4.57;2.20;;;14.70;99.90;;;;;;5054934;28;20371;-57
2023/06/04 06:06:57;;;;;;;5.78;2.53;;;14.90;99.90;;;;;;5061159;28;20337;-57
2023/06/04 06:09:23;;;;;;;2.53;1.92;;;14.80;99.90;;;;;;5060455;28;20040;-57
2023/06/04 06:11:48;;;;;;;4.25;2.15;;;14.90;99.90;;;;;;5058178;28;20029;-58
2023/06/04 06:14:14;;;;;;;3.85;2.13;;;15.10;99.90;;;;;;5055824;28;20601;-58
2023/06/04 06:16:40;;;;;;;4.05;2.20;;;15.10;99.90;;;;;;5056621;28;20384;-57
2023/06/04 06:19:06;;;;;;;5.50;2.63;;;15.20;99.90;;;;;;5054544;28;20039;-57
2023/06/04 06:21:31;;;;;;;5.68;2.03;;;15.30;99.90;;;;;;5059637;28;20040;-58
2023/06/04 06:23:57;;;;;;;2.95;1.67;;;15.40;99.90;;;;;;5052248;28;20060;-58
2023/06/04 06:26:24;;;;;;;4.28;1.90;;;15.60;99.90;;;;;;5052185;28;20091;-57
2023/06/04 06:28:49;;;;;;;4.25;2.03;;;15.30;99.90;;;;;;5059021;28;20101;-58
2023/06/04 06:31:15;;;;;;;3.15;1.98;;;15.50;99.90;;;;;;5057879;28;20029;-58
2023/06/04 06:33:41;;;;;;;3.92;1.80;;;15.30;99.90;;;;;;5050893;28;20276;-58
2023/06/04 06:36:08;;;;;;;3.83;2.00;;;15.50;99.90;;;;;;5056226;28;20096;-58
2023/06/04 06:38:33;;;;;;;4.25;1.67;;;15.60;99.90;;;;;;5053435;28;20100;-58
2023/06/04 06:40:59;;;;;;;3.35;1.83;;;15.70;99.90;;;;;;5060300;28;20131;-58
2023/06/04 06:43:25;;;;;;;5.13;1.80;;;15.70;99.90;;;;;;5057974;28;20063;-57
2023/06/04 06:45:51;;;;;;;3.83;1.77;;;16.00;99.90;;;;;;5061137;28;20964;-57
2023/06/04 06:48:16;;;;;;;4.57;1.80;;;16.20;99.90;;;;;;5059887;28;20119;-58
2023/06/04 06:50:42;;;;;;;4.90;2.15;;;16.40;99.90;;;;;;5052767;28;20037;-57
2023/06/04 06:53:07;;;;;;;4.25;1.90;;;16.30;99.90;;;;;;5055911;28;20504;-57
2023/06/04 06:55:33;;;;;;;5.53;2.55;;;16.60;99.90;;;;;;5055951;28;20062;-58
2023/06/04 06:57:58;;;;;;;6.28;2.30;;;16.60;99.90;;;;;;5051452;28;20565;-58
2023/06/04 07:00:26;;;;;;;5.10;2.55;;;16.70;99.90;;;;;;5056340;28;20388;-58
2023/06/04 07:02:51;;;;;;;5.03;2.30;;;16.70;99.90;;;;;;5054752;28;20033;-57
2023/06/04 07:05:17;;;;;;;2.92;1.92;;;16.80;99.90;;;;;;5050209;28;20036;-58
2023/06/04 07:07:43;;;;;;;5.88;2.63;;;17.10;99.90;;;;;;5055221;28;20037;-56
2023/06/04 07:10:09;;;;;;;6.88;2.42;;;17.10;99.90;;;;;;5058461;28;20040;-56
2023/06/04 07:12:35;;;;;;;4.97;2.60;;;17.00;99.90;;;;;;5059509;28;20378;-57
2023/06/04 07:15:00;;;;;;;5.10;2.20;;;17.10;99.90;;;;;;5056781;28;20291;-56
2023/06/04 07:17:26;;;;;;;4.10;2.25;;;17.00;99.90;;;;;;5058926;28;21311;-57
2023/06/04 07:19:51;;;;;;;3.42;2.22;;;17.00;99.90;;;;;;5055458;28;20036;-56
2023/06/04 07:22:17;;;;;;;5.25;2.40;;;17.20;99.90;;;;;;5056177;28;20059;-57
2023/06/04 07:24:43;;;;;;;3.53;2.10;;;17.50;99.90;;;;;;5055936;28;20037;-56
2023/06/04 07:27:15;;;;;;;2.97;2.13;;;17.70;99.90;;;;;;5058266;28;20447;-56
2023/06/04 07:29:44;;;;;;;4.38;2.10;;;17.50;99.90;;;;;;5060362;28;20044;-57
2023/06/04 07:32:10;;;;;;;4.03;2.28;;;17.60;99.90;;;;;;5060079;28;20040;-57
2023/06/04 07:34:36;;;;;;;4.68;1.90;;;17.70;99.90;;;;;;5060159;28;20044;-56
2023/06/04 07:37:02;;;;;;;4.68;2.13;;;17.90;99.90;;;;;;5057884;28;20056;-57
2023/06/04 07:39:28;;;;;;;4.70;2.08;;;18.00;99.90;;;;;;5058064;28;20079;-57
2023/06/04 07:41:54;;;;;;;6.20;2.40;;;17.90;99.90;;;;;;5054738;28;20041;-57
2023/06/04 07:44:19;;;;;;;4.22;2.00;;;18.00;99.90;;;;;;5052639;28;20037;-56
2023/06/04 07:46:45;;;;;;;3.30;2.20;;;18.10;99.90;;;;;;5058862;28;20055;-56
2023/06/04 07:49:11;;;;;;;5.38;2.45;;;18.30;99.90;;;;;;5057741;28;20043;-57
2023/06/04 07:51:37;;;;;;;5.25;2.10;;;18.10;99.90;;;;;;5060382;28;20593;-56
2023/06/04 07:54:02;;;;;;;4.53;2.00;;;18.00;99.90;;;;;;5046863;28;20049;-57
2023/06/04 07:56:28;;;;;;;6.55;2.38;;;18.00;99.90;;;;;;5051668;28;20140;-57
2023/06/04 07:58:55;;;;;;;7.43;2.08;;;18.00;99.90;;;;;;5056172;28;20067;-56
2023/06/04 08:01:21;;;;;;;8.45;2.42;;;18.30;99.90;;;;;;5058687;28;20163;-57
2023/06/04 08:03:47;;;;;;;5.03;2.17;;;18.60;99.90;;;;;;5058435;28;20112;-57
2023/06/04 08:06:14;;;;;;;3.63;2.10;;;18.60;99.90;;;;;;5053623;28;20119;-57
2023/06/04 08:08:44;;;;;;;4.75;2.20;;;18.70;99.90;;;;;;5055571;28;20082;-56
2023/06/04 08:11:09;;;;;;;4.18;2.00;;;18.80;99.90;;;;;;5056010;28;20044;-56
2023/06/04 08:13:35;;;;;;;4.82;2.00;;;18.70;99.90;;;;;;5056858;28;20036;-59
2023/06/04 08:16:00;;;;;;;3.63;2.10;;;18.80;99.90;;;;;;5058691;28;20032;-56
2023/06/04 08:18:26;;;;;;;4.53;2.08;;;19.00;99.90;;;;;;5054863;28;20053;-56
2023/06/04 08:20:51;;;;;;;3.13;1.80;;;18.80;99.80;;;;;;5054797;28;20058;-56
2023/06/04 08:23:17;;;;;;;5.40;2.08;;;19.00;99.90;;;;;;5059041;28;20396;-56
2023/06/04 08:25:43;;;;;;;4.05;2.28;;;19.10;99.90;;;;;;5059962;28;20021;-56
2023/06/04 08:28:08;;;;;;;6.90;2.05;;;19.10;98.20;;;;;;5058944;28;20029;-57
2023/06/04 08:30:35;;;;;;;6.60;2.20;;;19.30;98.30;;;;;;5060781;28;20029;-56
2023/06/04 08:33:01;;;;;;;6.18;2.67;;;19.20;95.90;;;;;;5063755;28;20036;-56
2023/06/04 08:35:27;;;;;;;5.78;2.33;;;19.40;97.50;;;;;;5062557;28;20040;-58
2023/06/04 08:37:52;;;;;;;5.15;2.22;;;19.60;97.60;;;;;;5059519;28;20051;-56
2023/06/04 08:40:18;;;;;;;4.63;1.80;;;19.60;94.00;;;;;;5062078;28;20116;-57
2023/06/04 08:42:44;;;;;;;5.10;1.67;;;19.60;91.30;;;;;;5061754;28;20031;-57
2023/06/04 08:45:16;;;;;;;5.22;2.20;;;19.50;86.70;;;;;;5063589;28;20036;-57
2023/06/04 08:47:47;;;;;;;5.13;1.95;;;19.70;89.40;;;;;;5057178;28;20042;-56
2023/06/04 08:50:17;;;;;;;4.78;2.17;;;19.80;84.00;;;;;;5055530;28;20071;-57
2023/06/04 08:52:43;;;;;;;4.72;1.90;;;19.90;89.50;;;;;;5056624;28;20396;-57
2023/06/04 08:55:11;;;;;;;5.45;2.25;;;19.90;80.70;;;;;;5059192;28;20040;-57
2023/06/04 08:57:39;;;;;;;2.83;1.60;;;19.80;77.40;;;;;;5051853;28;20124;-56
2023/06/04 09:00:07;;;;;;;6.60;1.80;;;19.80;79.80;;;;;;5060682;28;20128;-56
2023/06/04 09:02:36;;;;;;;3.00;1.60;;;20.00;75.10;;;;;;5057990;28;20033;-57
2023/06/04 09:05:04;;;;;;;3.85;1.52;;;20.20;78.90;;;;;;5054355;28;20405;-58
2023/06/04 09:07:31;;;;;;;8.45;2.00;;;20.30;73.90;;;;;;5058590;28;20037;-56
2023/06/04 09:09:59;;;;;;;2.38;1.60;;;20.40;74.80;;;;;;5064684;28;21247;-56
2023/06/04 09:12:25;;;;;;;4.65;1.45;;;20.40;72.70;;;;;;5056185;28;20448;-57
2023/06/04 09:14:51;;;;;;;3.80;1.90;;;20.40;74.30;;;;;;5057932;28;20035;-57
2023/06/04 09:17:23;;;;;;;6.55;2.08;;;20.30;73.90;;;;;;5060827;28;20140;-58
2023/06/04 09:19:50;;;;;;;4.57;2.00;;;20.50;79.10;;;;;;5053520;28;20032;-57
2023/06/04 09:22:15;;;;;;;3.85;1.60;;;20.60;74.70;;;;;;5058626;28;20059;-57
2023/06/04 09:24:46;;;;;;;4.40;1.60;;;20.60;76.00;;;;;;5060300;28;20448;-57
2023/06/04 09:27:23;;;;;;;4.68;1.50;;;20.80;75.10;;;;;;5056832;28;20044;-57
2023/06/04 09:29:51;;;;;;;4.57;1.42;;;20.70;73.50;;;;;;5054990;28;20040;-56
2023/06/04 09:32:25;;;;;;;5.60;1.55;;;20.80;65.30;;;;;;5061542;28;20116;-54
2023/06/04 09:34:52;;;;;;;6.70;1.50;;;20.70;65.20;;;;;;5059205;28;20047;-54
2023/06/04 09:37:18;;;;;;;6.00;1.60;;;20.90;69.90;;;;;;5057743;28;20072;-55
2023/06/04 09:39:55;;;;;;;4.25;1.60;;;20.90;63.90;;;;;;5057983;28;20295;-54
2023/06/04 09:42:23;;;;;;;3.97;1.33;;;20.80;66.60;;;;;;5053278;28;20049;-54
2023/06/04 09:44:49;;;;;;;4.20;1.30;;;21.00;64.10;;;;;;5057480;28;20426;-54
2023/06/04 09:47:15;;;;;;;3.63;1.30;;;21.20;61.70;;;;;;5052833;28;20788;-54
2023/06/04 09:49:49;;;;;;;3.30;1.30;;;21.20;60.50;;;;;;5061806;28;20116;-54
2023/06/04 09:52:15;;;;;;;1.80;1.25;;;21.20;62.70;;;;;;5057924;28;20036;-55
2023/06/04 09:54:41;;;;;;;4.13;1.40;;;21.30;59.10;;;;;;5057842;28;20044;-54
2023/06/04 09:57:18;;;;;;;4.13;1.40;;;21.30;61.80;;;;;;5057084;28;20484;-55
2023/06/04 09:59:45;;;;;;;3.67;1.73;;;21.10;60.50;;;;;;5064037;28;20036;-55
2023/06/04 10:02:18;;;;;;;2.78;1.42;;;21.00;59.70;;;;;;5060798;28;20672;-54
2023/06/04 10:04:52;;;;;;;3.70;1.40;;;20.80;58.50;;;;;;5055698;28;20099;-54
2023/06/04 10:07:18;;;;;;;3.08;1.80;;;20.80;58.90;;;;;;5054547;28;20141;-55
2023/06/04 10:09:47;;;;;;;3.63;1.70;;;21.00;57.60;;;;;;5053163;28;20047;-55
2023/06/04 10:12:21;;;;;;;4.35;1.50;;;21.20;61.10;;;;;;5049918;28;20029;-54
2023/06/04 10:14:54;;;;;;;;;;;21.30;61.60;;;;;;5057229;28;20044;-54
2023/06/04 10:17:23;;;;;;;3.38;1.70;;;20.90;56.20;;;;;;5058013;28;19917;-54
2023/06/04 10:19:52;;;;;;;4.55;1.58;;;21.10;62.30;;;;;;5051555;28;20137;-55
2023/06/04 10:22:17;;;;;;;4.75;1.90;;;21.50;61.40;;;;;;5052632;28;20431;-55
2023/06/04 10:24:44;;;;;;;2.47;1.48;;;21.70;59.30;;;;;;5050250;28;20368;-55
2023/06/04 10:27:12;;;;;;;3.20;1.80;;;21.70;58.30;;;;;;5046780;28;20399;-54
2023/06/04 10:29:38;;;;;;;4.78;2.03;;;21.30;56.40;;;;;;5051603;28;20044;-54
2023/06/04 10:32:04;;;;;;;4.93;1.77;;;21.40;58.60;;;;;;5059150;28;20059;-54
2023/06/04 10:34:30;;;;;;;3.58;1.88;;;21.20;55.00;;;;;;5056359;28;20056;-55
2023/06/04 10:36:57;;;;;;;6.28;1.80;;;21.10;55.30;;;;;;5055290;28;20040;-54
2023/06/04 10:39:32;;;;;;;6.60;1.92;;;21.40;57.90;;;;;;5056631;28;20044;-55
2023/06/04 10:42:05;;;;;;;3.85;2.00;;;21.30;57.80;;;;;;5058218;28;20149;-54
2023/06/04 10:44:32;;;;;;;4.03;1.90;;;21.30;56.50;;;;;;5057848;28;20033;-55
2023/06/04 10:46:58;;;;;;;4.53;1.80;;;21.40;54.40;;;;;;5055807;28;20517;-56
2023/06/04 10:49:31;;;;;;;2.78;1.60;;;21.40;57.00;;;;;;5061570;28;20113;-55
2023/06/04 10:51:57;;;;;;;4.85;1.75;;;21.50;55.70;;;;;;5059225;28;20041;-55
2023/06/04 10:54:26;;;;;;;5.70;1.98;;;21.50;56.70;;;;;;5056873;28;20115;-55
2023/06/04 10:56:53;;;;;;;2.63;1.80;;;21.70;57.20;;;;;;5052164;28;20033;-55
2023/06/04 10:59:19;;;;;;;5.05;1.60;;;21.60;58.70;;;;;;5054600;28;20035;-55
2023/06/04 11:01:45;;;;;;;4.75;1.83;;;21.90;56.60;;;;;;5049284;28;20041;-55
2023/06/04 11:04:24;;;;;;;3.78;1.73;;;21.90;53.90;;;;;;5053286;28;20484;-55
2023/06/04 11:07:08;;;;;;;5.28;1.75;;;21.70;55.30;;;;;;5060913;28;20036;-55
2023/06/04 11:09:52;;;;;;;4.22;1.83;;;21.50;53.80;;;;;;5058459;28;20056;-54
2023/06/04 11:12:18;;;;;;;3.25;1.60;;;21.60;55.60;;;;;;5055064;28;20033;-55
2023/06/04 11:14:56;;;;;;;5.13;1.80;;;21.60;56.20;;;;;;5059371;28;20416;-55
2023/06/04 11:17:22;;;;;;;5.88;2.05;;;21.60;54.60;;;;;;5050598;28;20050;-55
2023/06/04 11:19:48;;;;;;;6.03;1.80;;;22.20;57.30;;;;;;5054616;28;20677;-55
2023/06/04 11:22:14;;;;;;;2.92;1.73;;;21.60;56.00;;;;;;5053581;28;20037;-55
2023/06/04 11:24:40;;;;;;;2.97;1.60;;;21.80;53.90;;;;;;5059679;28;20040;-55
2023/06/04 11:27:05;;;;;;;5.13;1.80;;;21.70;52.90;;;;;;5052713;28;20037;-55
2023/06/04 11:29:32;;;;;;;5.32;1.75;;;21.70;54.20;;;;;;5057382;28;20127;-55
2023/06/04 11:31:58;;;;;;;2.78;1.83;;;21.60;52.10;;;;;;5058164;28;20501;-55
2023/06/04 11:34:28;;;;;;;4.13;1.90;;;21.70;53.80;;;;;;5053184;28;20033;-55
2023/06/04 11:36:54;;;;;;;3.55;1.80;;;21.60;51.80;;;;;;5055040;28;20452;-54
2023/06/04 11:39:33;;;;;;;4.90;1.48;;;21.60;50.50;;;;;;5051725;28;20053;-55
2023/06/04 11:42:04;;;;;;;4.57;1.92;;;21.70;51.20;;;;;;5054196;28;20473;-55
2023/06/04 11:44:29;;;;;;;6.03;1.90;;;21.90;54.00;;;;;;5055269;28;20614;-55
2023/06/04 11:46:55;;;;;;;2.58;1.90;;;22.00;53.90;;;;;;5056245;28;20036;-55
2023/06/04 11:49:21;;;;;;;4.43;1.90;;;22.10;55.50;;;;;;5059022;28;20075;-55
2023/06/04 11:51:48;;;;;;;4.28;1.83;;;22.10;55.00;;;;;;5062474;28;20082;-55
2023/06/04 11:54:17;;;;;;;3.03;1.63;;;22.20;53.70;;;;;;5056157;28;20439;-55
2023/06/04 11:56:44;;;;;;;3.78;1.77;;;22.20;52.00;;;;;;5048514;28;20501;-56
2023/06/04 11:59:13;;;;;;;4.03;1.95;;;22.10;50.80;;;;;;5054009;28;20036;-58
2023/06/04 12:01:40;;;;;;;3.97;1.83;;;22.00;52.30;;;;;;5061125;28;20040;-57
2023/06/04 12:04:16;;;;;;;3.78;2.03;;;21.90;52.80;;;;;;5050517;28;20524;-57
2023/06/04 12:06:57;;;;;;;3.83;1.80;;;21.90;50.10;;;;;;5059134;28;20045;-58
2023/06/04 12:09:39;;;;;;;2.83;1.70;;;21.70;47.60;;;;;;5056107;28;20089;-57
2023/06/04 12:12:06;;;;;;;3.20;1.70;;;21.80;52.70;;;;;;5049829;28;20524;-57
2023/06/04 12:14:32;;;;;;;3.47;1.70;;;21.90;54.40;;;;;;5057266;28;20715;-57
2023/06/04 12:17:10;;;;;;;3.25;1.70;;;22.00;53.00;;;;;;5052005;28;20043;-57
2023/06/04 12:19:50;;;;;;;3.30;1.90;;;22.10;53.60;;;;;;5053839;28;20510;-57
2023/06/04 12:22:16;;;;;;;4.53;2.13;;;21.80;50.60;;;;;;5055474;28;20506;-57
2023/06/04 12:24:53;;;;;;;5.60;2.30;;;21.80;51.00;;;;;;5057550;28;20036;-57
2023/06/04 12:27:23;;;;;;;6.07;1.95;;;21.90;51.40;;;;;;5052723;28;20489;-57
2023/06/04 12:30:18;;;;;;;4.88;1.70;;;22.10;52.80;;;;;;5053422;28;20188;-57
2023/06/04 12:32:45;;;;;;;4.10;2.70;;;22.00;48.80;;;;;;5036413;28;20036;-57
2023/06/04 12:35:11;;;;;;;9.30;6.85;;;22.20;50.90;;;;;;5058379;28;20311;-57
2023/06/04 12:37:36;;;;;;;4.80;2.80;;;22.30;53.60;;;;;;5054324;28;20052;-57
2023/06/04 12:40:04;;;;;;;3.85;2.40;;;22.20;49.80;;;;;;5055199;28;20057;-58
2023/06/04 12:42:30;;;;;;;3.28;2.05;;;22.20;51.30;;;;;;5056866;28;20040;-57
2023/06/04 12:44:55;;;;;;;4.60;2.38;;;22.00;50.80;;;;;;5055003;28;20035;-56
2023/06/04 12:47:21;;;;;;;4.35;2.08;;;22.10;52.60;;;;;;5051042;28;20044;-56
2023/06/04 12:49:47;;;;;;;3.92;1.67;;;22.20;49.70;;;;;;5056291;28;20408;-57